createdAt,value
2022-10-31T00:01:39.122Z,100609.23
2022-10-31T00:04:07.790Z,100612.52
2022-10-31T00:06:36.154Z,100616.55
2022-10-31T00:09:05.823Z,100619.08
2022-10-31T00:11:34.150Z,100615.81
2022-10-31T00:14:03.078Z,100618.13
2022-10-31T00:16:31.813Z,100619.36
2022-10-31T00:19:03.035Z,100619.94
2022-10-31T00:21:32.476Z,100616.89
2022-10-31T00:24:01.845Z,100619.35
2022-10-31T00:26:32.535Z,100617.36
2022-10-31T00:29:01.666Z,100620.48
2022-10-31T00:31:30.684Z,100620.04
2022-10-31T00:33:59.776Z,100622.17
2022-10-31T00:36:28.285Z,100621.14
2022-10-31T00:38:57.257Z,100627.54
2022-10-31T00:41:25.714Z,100628.61
2022-10-31T00:43:53.860Z,100628.77
2022-10-31T00:46:22.222Z,100625.68
2022-10-31T00:48:50.377Z,100628.14
2022-10-31T00:51:18.741Z,100627.63
2022-10-31T00:53:47.054Z,100625.86
2022-10-31T00:56:15.570Z,100623.56
2022-10-31T00:58:43.840Z,100618.37
2022-10-31T01:01:12.217Z,100618.45
2022-10-31T01:03:41.270Z,100613.15
2022-10-31T01:06:12.476Z,100615.16
2022-10-31T01:08:40.802Z,100619.38
2022-10-31T01:11:15.220Z,100612.17
2022-10-31T01:13:44.435Z,100616.85
2022-10-31T01:16:15.487Z,100618.02
2022-10-31T01:18:44.374Z,100621.23
2022-10-31T01:21:22.274Z,100623.83
2022-10-31T01:23:51.961Z,100622.60
2022-10-31T01:26:23.350Z,100625.10
2022-10-31T01:28:57.639Z,100625.14
2022-10-31T01:31:29.376Z,100619.45
2022-10-31T01:33:58.188Z,100617.15
2022-10-31T01:36:32.526Z,100620.02
2022-10-31T01:39:04.311Z,100623.02
2022-10-31T01:41:35.599Z,100621.83
2022-10-31T01:44:24.115Z,100624.61
2022-10-31T01:46:57.924Z,100623.41
2022-10-31T01:49:32.631Z,100619.94
2022-10-31T01:52:06.326Z,100622.67
2022-10-31T01:54:40.669Z,100621.45
2022-10-31T01:57:11.584Z,100623.67
2022-10-31T01:59:48.046Z,100625.20
2022-10-31T02:02:18.577Z,100624.88
2022-10-31T02:04:48.912Z,100629.16
2022-10-31T02:07:58.287Z,100635.42
2022-10-31T02:10:27.130Z,100634.39
2022-10-31T02:12:58.667Z,100634.98
2022-10-31T02:15:27.724Z,100636.77
2022-10-31T02:17:56.097Z,100636.11
2022-10-31T02:20:27.194Z,100635.66
2022-10-31T02:23:23.458Z,100634.85
2022-10-31T02:26:10.361Z,100638.77
2022-10-31T02:28:48.805Z,100638.81
2022-10-31T02:31:28.917Z,100637.30
2022-10-31T02:34:20.179Z,100634.04
2022-10-31T02:37:03.233Z,100635.91
2022-10-31T02:39:42.168Z,100640.30
2022-10-31T02:42:33.571Z,100641.09
2022-10-31T02:45:13.904Z,100638.31
2022-10-31T02:47:44.216Z,100636.41
2022-10-31T02:50:17.549Z,100637.55
2022-10-31T02:52:45.751Z,100639.44
2022-10-31T02:55:26.291Z,100638.92
2022-10-31T02:58:21.592Z,100643.36
2022-10-31T03:01:15.820Z,100642.11
2022-10-31T03:03:59.871Z,100644.90
2022-10-31T03:07:01.981Z,100645.02
2022-10-31T03:09:42.934Z,100647.61
2022-10-31T03:12:20.581Z,100644.21
2022-10-31T03:15:04.784Z,100647.09
2022-10-31T03:17:37.906Z,100648.20
2022-10-31T03:20:09.924Z,100644.70
2022-10-31T03:22:43.157Z,100647.75
2022-10-31T03:25:13.433Z,100648.10
2022-10-31T03:27:44.956Z,100652.40
2022-10-31T03:30:13.479Z,100651.83
2022-10-31T03:32:47.879Z,100653.77
2022-10-31T03:35:20.985Z,100655.27
2022-10-31T03:37:51.076Z,100655.95
2022-10-31T03:40:22.253Z,100653.84
2022-10-31T03:43:01.259Z,100657.96
2022-10-31T03:45:32.472Z,100658.77
2022-10-31T03:48:01.704Z,100667.06
2022-10-31T03:50:41.582Z,100670.59
2022-10-31T03:53:17.519Z,100669.37
2022-10-31T03:55:59.147Z,100669.89
2022-10-31T03:58:33.779Z,100669.69
2022-10-31T04:01:07.222Z,100669.17
2022-10-31T04:03:39.039Z,100668.89
2022-10-31T04:06:10.604Z,100668.95
2022-10-31T04:08:51.283Z,100671.20
2022-10-31T04:11:25.752Z,100669.89
2022-10-31T04:13:56.245Z,100670.46
2022-10-31T04:16:26.815Z,100668.98
2022-10-31T04:18:55.525Z,100669.00
2022-10-31T04:21:31.295Z,100668.67
2022-10-31T04:23:59.583Z,100666.52
2022-10-31T04:26:27.847Z,100664.08
2022-10-31T04:28:56.113Z,100661.13
2022-10-31T04:31:24.306Z,100659.04
2022-10-31T04:33:52.484Z,100660.86
2022-10-31T04:36:20.724Z,100661.30
2022-10-31T04:38:48.880Z,100660.70
2022-10-31T04:41:17.138Z,100657.34
2022-10-31T04:43:45.389Z,100658.98
2022-10-31T04:46:13.816Z,100661.07
2022-10-31T04:48:42.030Z,100660.77
2022-10-31T04:51:10.388Z,100662.61
2022-10-31T04:53:38.667Z,100662.20
2022-10-31T04:56:07.220Z,100658.98
2022-10-31T04:58:35.469Z,100657.30
2022-10-31T05:01:03.991Z,100660.98
2022-10-31T05:03:32.461Z,100661.98
2022-10-31T05:06:00.644Z,100664.89
2022-10-31T05:08:28.860Z,100669.17
2022-10-31T05:11:04.394Z,100668.36
2022-10-31T05:13:33.185Z,100667.86
2022-10-31T05:16:01.440Z,100669.95
2022-10-31T05:18:29.662Z,100674.64
2022-10-31T05:20:57.900Z,100678.57
2022-10-31T05:23:26.091Z,100681.63
2022-10-31T05:25:54.366Z,100680.52
2022-10-31T05:28:22.550Z,100683.66
2022-10-31T05:30:51.489Z,100683.55
2022-10-31T05:33:19.863Z,100681.66
2022-10-31T05:35:48.104Z,100682.18
2022-10-31T05:38:16.293Z,100684.10
2022-10-31T05:40:44.539Z,100690.25
2022-10-31T05:43:12.886Z,100691.73
2022-10-31T05:45:41.270Z,100694.89
2022-10-31T05:48:09.770Z,100700.15
2022-10-31T05:50:37.992Z,100704.56
2022-10-31T05:53:06.801Z,100698.72
2022-10-31T05:55:35.251Z,100703.09
2022-10-31T05:58:03.708Z,100699.41
2022-10-31T06:00:32.353Z,100703.14
2022-10-31T06:03:02.178Z,100703.81
2022-10-31T06:05:31.545Z,100703.91
2022-10-31T06:08:00.635Z,100703.94
2022-10-31T06:10:29.688Z,100706.48
2022-10-31T06:12:58.119Z,100711.79
2022-10-31T06:15:26.349Z,100714.14
2022-10-31T06:18:06.340Z,100720.77
2022-10-31T06:20:34.597Z,100722.27
2022-10-31T06:23:03.734Z,100724.93
2022-10-31T06:25:32.341Z,100724.43
2022-10-31T06:28:00.726Z,100725.36
2022-10-31T06:30:29.831Z,100727.86
2022-10-31T06:33:05.020Z,100727.17
2022-10-31T06:35:33.784Z,100726.52
2022-10-31T06:38:02.381Z,100730.54
2022-10-31T06:40:30.960Z,100732.96
2022-10-31T06:43:01.180Z,100734.30
2022-10-31T06:45:29.726Z,100733.73
2022-10-31T06:50:47.281Z,100734.13
2022-10-31T06:53:16.185Z,100740.06
2022-10-31T06:55:44.660Z,100748.20
2022-10-31T06:58:12.945Z,100748.80
2022-10-31T07:00:41.269Z,100751.40
2022-10-31T07:03:14.396Z,100748.81
2022-10-31T07:05:43.860Z,100753.90
2022-10-31T07:08:14.544Z,100755.19
2022-10-31T07:10:44.255Z,100761.09
2022-10-31T07:13:15.514Z,100770.02
2022-10-31T07:15:45.032Z,100773.02
2022-10-31T07:18:13.796Z,100780.72
2022-10-31T07:20:42.076Z,100783.80
2022-10-31T07:23:12.256Z,100784.56
2022-10-31T07:25:41.336Z,100787.59
2022-10-31T07:28:10.569Z,100788.20
2022-10-31T07:30:39.906Z,100788.81
2022-10-31T07:33:08.198Z,100789.67
2022-10-31T07:35:36.579Z,100786.59
2022-10-31T07:38:12.847Z,100792.30
2022-10-31T07:40:42.675Z,100796.95
2022-10-31T07:43:14.472Z,100796.60
2022-10-31T07:45:43.285Z,100793.80
2022-10-31T07:48:11.496Z,100798.17
2022-10-31T07:50:40.631Z,100801.84
2022-10-31T07:53:11.583Z,100799.10
2022-10-31T07:55:40.859Z,100802.71
2022-10-31T07:58:12.679Z,100802.29
2022-10-31T08:00:43.028Z,100802.23
2022-10-31T08:03:15.682Z,100807.34
2022-10-31T08:05:46.067Z,100805.13
2022-10-31T08:08:15.470Z,100804.86
2022-10-31T08:10:43.936Z,100807.21
2022-10-31T08:13:14.713Z,100804.59
2022-10-31T08:15:43.390Z,100806.48
2022-10-31T08:18:16.276Z,100802.02
2022-10-31T08:20:45.267Z,100799.91
2022-10-31T08:23:15.166Z,100798.23
2022-10-31T08:25:43.761Z,100797.00
2022-10-31T08:28:13.071Z,100791.16
2022-10-31T08:30:42.706Z,100793.55
2022-10-31T08:33:16.174Z,100792.48
2022-10-31T08:35:45.367Z,100796.90
2022-10-31T08:38:15.545Z,100798.50
2022-10-31T08:40:44.175Z,100797.00
2022-10-31T08:43:16.284Z,100794.75
2022-10-31T08:45:46.096Z,100794.14
2022-10-31T08:48:16.934Z,100795.03
2022-10-31T08:50:47.226Z,100796.80
2022-10-31T08:53:18.416Z,100795.61
2022-10-31T08:55:48.188Z,100795.17
2022-10-31T08:58:19.364Z,100798.40
2022-10-31T09:00:50.045Z,100797.63
2022-10-31T09:03:23.016Z,100801.13
2022-10-31T09:05:52.092Z,100803.61
2022-10-31T09:08:20.258Z,100803.16
2022-10-31T09:10:48.998Z,100807.09
2022-10-31T09:13:24.175Z,100809.66
2022-10-31T09:15:54.562Z,100812.85
2022-10-31T09:18:24.579Z,100813.40
2022-10-31T09:20:53.023Z,100819.30
2022-10-31T09:23:23.525Z,100822.10
2022-10-31T09:25:53.701Z,100822.16
2022-10-31T09:28:24.389Z,100821.73
2022-10-31T09:30:54.324Z,100827.23
2022-10-31T09:33:23.056Z,100826.64
2022-10-31T09:35:51.471Z,100824.36
2022-10-31T09:38:22.128Z,100829.08
2022-10-31T09:41:16.422Z,100831.95
2022-10-31T09:44:07.556Z,100829.69
2022-10-31T09:47:15.784Z,100830.41
2022-10-31T09:50:12.833Z,100832.22
2022-10-31T09:52:49.220Z,100833.45
2022-10-31T09:55:22.407Z,100837.79
2022-10-31T09:57:51.668Z,100839.27
2022-10-31T10:00:22.613Z,100842.14
2022-10-31T10:03:05.940Z,100841.89
2022-10-31T10:05:43.475Z,100844.32
2022-10-31T10:08:24.707Z,100845.91
2022-10-31T10:11:07.612Z,100847.73
2022-10-31T10:14:11.323Z,100848.50
2022-10-31T10:16:55.891Z,100851.45
2022-10-31T10:19:45.063Z,100849.25
2022-10-31T10:22:55.995Z,100846.59
2022-10-31T10:25:26.572Z,100839.64
2022-10-31T10:27:57.875Z,100836.20
2022-10-31T10:30:41.866Z,100839.54
2022-10-31T10:33:21.515Z,100833.02
2022-10-31T10:36:01.176Z,100832.80
2022-10-31T10:39:01.114Z,100836.79
2022-10-31T10:41:34.449Z,100840.84
2022-10-31T10:44:02.731Z,100841.09
2022-10-31T10:47:08.407Z,100842.84
2022-10-31T10:50:06.022Z,100839.48
2022-10-31T10:53:00.904Z,100842.13
2022-10-31T10:55:53.729Z,100843.30
2022-10-31T10:58:21.994Z,100840.46
2022-10-31T11:00:51.776Z,100840.09
2022-10-31T11:03:21.018Z,100842.54
2022-10-31T11:05:52.935Z,100837.87
2022-10-31T11:08:35.096Z,100832.75
2022-10-31T11:11:19.643Z,100836.87
2022-10-31T11:13:51.141Z,100828.73
2022-10-31T11:16:36.763Z,100823.73
2022-10-31T11:19:14.738Z,100823.80
2022-10-31T11:21:43.143Z,100823.91
2022-10-31T11:24:11.373Z,100819.23
2022-10-31T11:26:41.617Z,100815.42
2022-10-31T11:29:15.979Z,100815.10
2022-10-31T11:31:47.243Z,100813.84
2022-10-31T11:34:25.149Z,100820.77
2022-10-31T11:36:53.595Z,100817.92
2022-10-31T11:39:25.352Z,100812.01
2022-10-31T11:41:55.809Z,100811.97
2022-10-31T11:44:28.213Z,100808.89
2022-10-31T11:47:01.290Z,100809.05
2022-10-31T11:49:45.127Z,100808.38
2022-10-31T11:52:21.296Z,100807.73
2022-10-31T11:55:16.186Z,100812.10
2022-10-31T11:57:50.543Z,100815.57
2022-10-31T12:03:34.775Z,100816.77
2022-10-31T12:06:22.175Z,100816.15
2022-10-31T12:08:51.239Z,100814.00
2022-10-31T12:11:36.158Z,100812.77
2022-10-31T12:14:15.489Z,100812.05
2022-10-31T12:16:52.417Z,100811.37
2022-10-31T12:19:34.437Z,100810.01
2022-10-31T12:22:23.011Z,100811.16
2022-10-31T12:25:15.313Z,100813.29
2022-10-31T12:27:49.132Z,100808.80
2022-10-31T12:31:06.606Z,100808.52
2022-10-31T12:34:16.766Z,100803.15
2022-10-31T12:37:01.404Z,100795.71
2022-10-31T12:40:08.102Z,100797.18
2022-10-31T12:43:10.932Z,100792.51
2022-10-31T12:45:56.418Z,100797.64
2022-10-31T12:48:51.629Z,100792.52
2022-10-31T12:51:44.088Z,100790.11
2022-10-31T12:54:27.443Z,100790.54
2022-10-31T12:57:18.896Z,100791.11
2022-10-31T13:00:17.114Z,100792.56
2022-10-31T13:03:04.366Z,100792.70
2022-10-31T13:05:38.877Z,100791.10
2022-10-31T13:08:15.775Z,100787.52
2022-10-31T13:11:12.058Z,100787.15
2022-10-31T13:13:45.568Z,100787.77
2022-10-31T13:16:18.256Z,100784.34
2022-10-31T13:18:51.443Z,100783.31
2022-10-31T13:21:27.855Z,100783.77
2022-10-31T13:24:00.324Z,100783.66
2022-10-31T13:26:43.600Z,100779.40
2022-10-31T13:29:28.377Z,100778.98
2022-10-31T13:32:05.341Z,100777.99
2022-10-31T13:34:36.813Z,100775.94
2022-10-31T13:37:40.703Z,100780.69
2022-10-31T13:40:27.567Z,100778.30
2022-10-31T13:43:12.565Z,100773.36
2022-10-31T13:45:54.442Z,100771.88
2022-10-31T13:48:28.695Z,100768.72
2022-10-31T13:51:03.469Z,100770.61
2022-10-31T13:53:37.700Z,100766.77
2022-10-31T13:56:17.344Z,100766.00
2022-10-31T13:59:23.417Z,100763.10
2022-10-31T14:01:58.951Z,100757.19
2022-10-31T14:07:25.340Z,100763.61
2022-10-31T14:10:22.648Z,100761.20
2022-10-31T14:12:51.785Z,100760.55
2022-10-31T14:15:25.955Z,100758.39
2022-10-31T14:17:58.738Z,100760.96
2022-10-31T14:20:36.409Z,100760.42
2022-10-31T14:23:34.093Z,100759.17
2022-10-31T14:26:32.392Z,100757.14
2022-10-31T14:29:23.575Z,100757.92
2022-10-31T14:32:12.138Z,100753.09
2022-10-31T14:34:44.001Z,100753.08
2022-10-31T14:37:32.118Z,100752.52
2022-10-31T14:40:17.579Z,100751.05
2022-10-31T14:42:51.892Z,100753.61
2022-10-31T14:45:55.322Z,100750.33
2022-10-31T14:48:41.898Z,100745.02
2022-10-31T14:51:27.877Z,100748.29
2022-10-31T14:53:58.964Z,100752.45
2022-10-31T14:56:39.382Z,100753.33
2022-10-31T14:59:16.021Z,100749.36
2022-10-31T15:02:03.394Z,100751.70
2022-10-31T15:04:33.934Z,100755.80
2022-10-31T15:07:05.896Z,100756.65
2022-10-31T15:09:37.171Z,100755.29
2022-10-31T15:12:25.652Z,100761.48
2022-10-31T15:14:54.515Z,100764.40
2022-10-31T15:17:25.120Z,100765.57
2022-10-31T15:19:54.321Z,100763.55
2022-10-31T15:22:25.799Z,100760.11
2022-10-31T15:24:57.706Z,100765.73
2022-10-31T15:27:26.159Z,100766.40
2022-10-31T15:29:57.268Z,100767.64
2022-10-31T15:32:30.706Z,100769.23
2022-10-31T15:34:59.037Z,100767.55
2022-10-31T15:37:28.637Z,100764.06
2022-10-31T15:39:56.876Z,100760.89
2022-10-31T15:42:31.737Z,100762.16
2022-10-31T15:45:04.798Z,100763.83
2022-10-31T15:47:34.811Z,100766.80
2022-10-31T15:50:13.933Z,100767.67
2022-10-31T15:52:48.673Z,100768.42
2022-10-31T15:55:22.990Z,100771.79
2022-10-31T15:57:58.537Z,100772.02
2022-10-31T16:00:30.550Z,100775.84
2022-10-31T16:03:15.656Z,100776.14
2022-10-31T16:05:50.381Z,100778.86
2022-10-31T16:08:30.438Z,100779.92
2022-10-31T16:11:01.679Z,100781.48
2022-10-31T16:13:36.883Z,100784.58
2022-10-31T16:16:34.290Z,100788.79
2022-10-31T16:19:06.545Z,100791.86
2022-10-31T16:21:39.799Z,100791.75
2022-10-31T16:24:29.655Z,100796.26
2022-10-31T16:27:06.376Z,100791.13
2022-10-31T16:29:43.541Z,100794.86
2022-10-31T16:32:36.087Z,100797.72
2022-10-31T16:35:13.200Z,100797.00
2022-10-31T16:37:42.117Z,100802.67
2022-10-31T16:40:15.635Z,100800.73
2022-10-31T16:42:45.525Z,100796.44
2022-10-31T16:45:23.626Z,100795.36
2022-10-31T16:47:52.898Z,100796.61
2022-10-31T16:50:27.103Z,100796.90
2022-10-31T16:55:46.262Z,100795.08
2022-10-31T16:58:19.278Z,100794.30
2022-10-31T17:00:48.299Z,100794.44
2022-10-31T17:03:17.236Z,100796.22
2022-10-31T17:05:45.937Z,100797.48
2022-10-31T17:08:14.174Z,100802.92
2022-10-31T17:10:45.164Z,100803.36
2022-10-31T17:13:20.337Z,100806.28
2022-10-31T17:15:55.320Z,100804.73
2022-10-31T17:18:27.640Z,100798.98
2022-10-31T17:21:01.765Z,100800.63
2022-10-31T17:23:30.616Z,100798.82
2022-10-31T17:25:59.521Z,100799.23
2022-10-31T17:28:28.310Z,100799.08
2022-10-31T17:30:59.651Z,100803.84
2022-10-31T17:33:28.821Z,100803.58
2022-10-31T17:35:57.247Z,100806.27
2022-10-31T17:38:25.562Z,100803.67
2022-10-31T17:40:53.967Z,100804.81
2022-10-31T17:43:27.288Z,100804.80
2022-10-31T17:45:55.553Z,100797.55
2022-10-31T17:48:24.436Z,100794.23
2022-10-31T17:50:52.797Z,100796.45
2022-10-31T17:53:21.596Z,100797.38
2022-10-31T17:55:50.139Z,100798.59
2022-10-31T17:58:18.644Z,100795.38
2022-10-31T18:00:50.482Z,100790.46
2022-10-31T18:03:20.236Z,100790.88
2022-10-31T18:05:57.398Z,100787.06
2022-10-31T18:08:31.344Z,100786.39
2022-10-31T18:11:01.108Z,100791.33
2022-10-31T18:13:29.749Z,100796.40
2022-10-31T18:15:57.977Z,100794.48
2022-10-31T18:18:26.649Z,100789.32
2022-10-31T18:20:58.324Z,100790.66
2022-10-31T18:23:27.032Z,100789.58
2022-10-31T18:25:55.929Z,100790.45
2022-10-31T18:28:25.273Z,100788.17
2022-10-31T18:30:53.538Z,100788.61
2022-10-31T18:33:22.401Z,100790.23
2022-10-31T18:35:51.096Z,100792.30
2022-10-31T18:38:20.454Z,100791.38
2022-10-31T18:40:49.263Z,100789.08
2022-10-31T18:43:18.073Z,100788.79
2022-10-31T18:45:49.387Z,100785.30
2022-10-31T18:48:19.688Z,100781.92
2022-10-31T18:50:48.541Z,100781.98
2022-10-31T18:53:17.758Z,100779.26
2022-10-31T18:55:50.062Z,100781.41
2022-10-31T18:58:19.604Z,100779.10
2022-10-31T19:00:48.306Z,100774.25
2022-10-31T19:03:19.697Z,100772.81
2022-10-31T19:05:56.735Z,100773.39
2022-10-31T19:11:04.755Z,100770.92
2022-10-31T19:13:35.110Z,100773.02
2022-10-31T19:16:06.790Z,100771.98
2022-10-31T19:18:35.975Z,100769.40
2022-10-31T19:21:09.315Z,100770.48
2022-10-31T19:23:38.683Z,100767.28
2022-10-31T19:26:08.022Z,100767.29
2022-10-31T19:28:40.035Z,100761.98
2022-10-31T19:31:10.051Z,100762.80
2022-10-31T19:33:38.934Z,100759.66
2022-10-31T19:36:11.395Z,100761.70
2022-10-31T19:38:42.343Z,100762.25
2022-10-31T19:41:14.349Z,100760.90
2022-10-31T19:43:43.724Z,100760.33
2022-10-31T19:46:22.082Z,100756.49
2022-10-31T19:48:51.957Z,100755.10
2022-10-31T19:51:22.418Z,100754.86
2022-10-31T19:53:50.985Z,100755.14
2022-10-31T19:56:21.495Z,100751.42
2022-10-31T19:58:50.266Z,100752.47
2022-10-31T20:01:23.021Z,100757.55
2022-10-31T20:03:52.498Z,100755.71
2022-10-31T20:06:27.633Z,100755.70
2022-10-31T20:08:57.538Z,100754.69
2022-10-31T20:11:27.630Z,100757.35
2022-10-31T20:13:57.851Z,100759.70
2022-10-31T20:16:27.990Z,100763.70
2022-10-31T20:18:57.980Z,100760.84
2022-10-31T20:21:29.039Z,100758.77
2022-10-31T20:24:01.419Z,100758.33
2022-10-31T20:26:31.508Z,100760.48
2022-10-31T20:29:01.851Z,100758.40
2022-10-31T20:31:34.530Z,100756.60
2022-10-31T20:34:05.617Z,100756.67
2022-10-31T20:36:34.973Z,100755.88
2022-10-31T20:39:04.896Z,100759.54
2022-10-31T20:41:37.858Z,100757.84
2022-10-31T20:44:07.996Z,100756.83
2022-10-31T20:46:37.584Z,100756.37
2022-10-31T20:49:06.486Z,100751.44
2022-10-31T20:51:35.593Z,100754.62
2022-10-31T20:54:04.124Z,100755.41
2022-10-31T20:56:32.664Z,100755.39
2022-10-31T20:59:00.958Z,100749.85
2022-10-31T21:01:31.687Z,100742.73
2022-10-31T21:04:00.067Z,100740.77
2022-10-31T21:06:29.867Z,100741.08
2022-10-31T21:08:59.406Z,100738.61
2022-10-31T21:11:28.835Z,100737.73
2022-10-31T21:13:59.822Z,100735.77
2022-10-31T21:16:31.552Z,100731.73
2022-10-31T21:19:01.071Z,100731.95
2022-10-31T21:21:36.164Z,100731.94
2022-10-31T21:24:13.680Z,100731.79
2022-10-31T21:26:46.496Z,100729.55
2022-10-31T21:29:15.512Z,100728.02
2022-10-31T21:31:45.241Z,100729.01
2022-10-31T21:34:13.855Z,100722.39
2022-10-31T21:36:42.318Z,100723.26
2022-10-31T21:39:10.851Z,100721.38
2022-10-31T21:41:39.112Z,100720.19
2022-10-31T21:44:07.380Z,100718.44
2022-10-31T21:46:37.315Z,100716.71
2022-10-31T21:49:05.820Z,100716.41
2022-10-31T21:51:36.602Z,100710.81
2022-10-31T21:54:23.925Z,100709.12
2022-10-31T21:56:52.503Z,100711.19
2022-10-31T21:59:20.846Z,100710.52
2022-10-31T22:01:49.950Z,100706.19
2022-10-31T22:04:19.304Z,100715.95
2022-10-31T22:06:47.724Z,100715.76
2022-10-31T22:09:17.510Z,100710.69
2022-10-31T22:11:45.869Z,100707.14
2022-10-31T22:14:15.509Z,100699.23
2022-10-31T22:16:43.811Z,100697.38
2022-10-31T22:19:13.896Z,100693.49
2022-10-31T22:21:47.065Z,100693.46
2022-10-31T22:24:16.905Z,100692.20
2022-10-31T22:26:45.229Z,100698.21
2022-10-31T22:29:16.603Z,100696.92
2022-10-31T22:31:48.486Z,100701.58
2022-10-31T22:34:19.430Z,100697.93
2022-10-31T22:36:47.748Z,100696.91
2022-10-31T22:39:16.037Z,100697.65
2022-10-31T22:41:44.301Z,100698.23
2022-10-31T22:44:12.584Z,100696.85
2022-10-31T22:46:40.997Z,100694.02
2022-10-31T22:49:15.107Z,100688.42
2022-10-31T22:51:45.292Z,100683.84
2022-10-31T22:54:16.470Z,100687.61
2022-10-31T22:56:45.431Z,100684.56
2022-10-31T22:59:15.439Z,100679.09
2022-10-31T23:01:47.384Z,100676.47
2022-10-31T23:04:16.916Z,100684.34
2022-10-31T23:06:46.110Z,100679.52
2022-10-31T23:09:16.754Z,100683.41
2022-10-31T23:11:46.089Z,100687.77
2022-10-31T23:14:21.180Z,100685.19
2022-10-31T23:16:52.227Z,100689.19
2022-10-31T23:19:23.609Z,100688.85
2022-10-31T23:21:57.656Z,100681.51
2022-10-31T23:24:36.385Z,100676.61
2022-10-31T23:27:13.660Z,100675.64
2022-10-31T23:29:44.588Z,100671.72
2022-10-31T23:32:22.881Z,100664.53
2022-10-31T23:34:53.432Z,100661.09
2022-10-31T23:37:23.896Z,100660.49
2022-10-31T23:39:52.173Z,100655.58
2022-10-31T23:42:20.749Z,100651.34
2022-10-31T23:44:49.430Z,100649.13
2022-10-31T23:47:18.941Z,100645.83
2022-10-31T23:49:47.359Z,100644.25
2022-10-31T23:52:16.432Z,100638.48
2022-10-31T23:54:44.937Z,100638.95
2022-10-31T23:57:14.910Z,100633.94
2022-10-31T23:59:44.035Z,100626.46
